sensor_id;sensor_type;location;lat;lon;timestamp;temperature;humidity
18888;DHT22;9576;47.792;9.628;2022-09-20T00:01:05;8.70;99.90
18888;DHT22;9576;47.792;9.628;2022-09-20T00:04:09;8.80;99.90
18888;DHT22;9576;47.792;9.628;2022-09-20T00:07:11;8.80;99.90
18888;DHT22;9576;47.792;9.628;2022-09-20T00:10:13;8.80;99.90
18888;DHT22;9576;47.792;9.628;2022-09-20T00:13:15;8.80;99.90
18888;DHT22;9576;47.792;9.628;2022-09-20T00:16:20;8.80;99.90
18888;DHT22;9576;47.792;9.628;2022-09-20T00:19:23;8.80;99.90
18888;DHT22;9576;47.792;9.628;2022-09-20T00:22:25;8.80;99.90
18888;DHT22;9576;47.792;9.628;2022-09-20T00:25:27;8.80;99.90
18888;DHT22;9576;47.792;9.628;2022-09-20T00:28:30;8.70;99.90
18888;DHT22;9576;47.792;9.628;2022-09-20T00:31:33;8.80;99.90
18888;DHT22;9576;47.792;9.628;2022-09-20T00:34:38;8.90;99.90
18888;DHT22;9576;47.792;9.628;2022-09-20T00:37:57;8.90;99.90
18888;DHT22;9576;47.792;9.628;2022-09-20T00:40:59;8.90;99.90
18888;DHT22;9576;47.792;9.628;2022-09-20T00:44:01;8.80;99.90
18888;DHT22;9576;47.792;9.628;2022-09-20T00:47:04;8.80;99.90
18888;DHT22;9576;47.792;9.628;2022-09-20T00:50:16;8.90;99.90
18888;DHT22;9576;47.792;9.628;2022-09-20T00:53:20;8.90;99.90
18888;DHT22;9576;47.792;9.628;2022-09-20T00:56:28;8.80;99.90
18888;DHT22;9576;47.792;9.628;2022-09-20T00:59:34;8.80;99.90
18888;DHT22;9576;47.792;9.628;2022-09-20T01:02:41;8.80;99.90
18888;DHT22;9576;47.792;9.628;2022-09-20T01:05:45;8.70;99.90
18888;DHT22;9576;47.792;9.628;2022-09-20T01:08:49;8.60;99.90
18888;DHT22;9576;47.792;9.628;2022-09-20T01:11:53;8.50;99.90
18888;DHT22;9576;47.792;9.628;2022-09-20T01:14:56;8.50;99.90
18888;DHT22;9576;47.792;9.628;2022-09-20T01:18:00;8.50;99.90
18888;DHT22;9576;47.792;9.628;2022-09-20T01:21:05;8.40;99.90
18888;DHT22;9576;47.792;9.628;2022-09-20T01:24:12;8.30;99.90
18888;DHT22;9576;47.792;9.628;2022-09-20T01:27:22;8.30;99.90
18888;DHT22;9576;47.792;9.628;2022-09-20T01:30:34;8.30;99.90
18888;DHT22;9576;47.792;9.628;2022-09-20T01:33:46;8.30;99.90
18888;DHT22;9576;47.792;9.628;2022-09-20T01:36:52;8.20;99.90
18888;DHT22;9576;47.792;9.628;2022-09-20T01:40:01;8.00;99.90
18888;DHT22;9576;47.792;9.628;2022-09-20T01:43:11;7.90;99.90
18888;DHT22;9576;47.792;9.628;2022-09-20T01:46:27;7.90;99.90
18888;DHT22;9576;47.792;9.628;2022-09-20T01:49:37;7.90;99.90
18888;DHT22;9576;47.792;9.628;2022-09-20T01:56:36;7.80;99.90
18888;DHT22;9576;47.792;9.628;2022-09-20T02:00:04;7.70;99.90
18888;DHT22;9576;47.792;9.628;2022-09-20T02:03:44;7.70;99.90
18888;DHT22;9576;47.792;9.628;2022-09-20T02:07:06;7.60;99.90
18888;DHT22;9576;47.792;9.628;2022-09-20T02:10:33;7.60;99.90
18888;DHT22;9576;47.792;9.628;2022-09-20T02:14:08;7.60;99.90
18888;DHT22;9576;47.792;9.628;2022-09-20T02:17:21;7.60;99.90
18888;DHT22;9576;47.792;9.628;2022-09-20T02:20:38;7.60;99.90
18888;DHT22;9576;47.792;9.628;2022-09-20T02:23:53;7.50;99.90
18888;DHT22;9576;47.792;9.628;2022-09-20T02:27:10;7.50;99.90
18888;DHT22;9576;47.792;9.628;2022-09-20T02:30:22;7.50;99.90
18888;DHT22;9576;47.792;9.628;2022-09-20T02:37:38;7.40;99.90
18888;DHT22;9576;47.792;9.628;2022-09-20T02:40:54;7.40;99.90
18888;DHT22;9576;47.792;9.628;2022-09-20T02:44:02;7.30;99.90
18888;DHT22;9576;47.792;9.628;2022-09-20T02:47:15;7.30;99.90
18888;DHT22;9576;47.792;9.628;2022-09-20T02:50:27;7.20;99.90
18888;DHT22;9576;47.792;9.628;2022-09-20T02:53:38;7.10;99.90
18888;DHT22;9576;47.792;9.628;2022-09-20T02:56:50;7.10;99.90
18888;DHT22;9576;47.792;9.628;2022-09-20T03:00:00;7.10;99.90
18888;DHT22;9576;47.792;9.628;2022-09-20T03:03:10;7.10;99.90
18888;DHT22;9576;47.792;9.628;2022-09-20T03:06:22;7.10;99.90
18888;DHT22;9576;47.792;9.628;2022-09-20T03:09:32;7.10;99.90
18888;DHT22;9576;47.792;9.628;2022-09-20T03:12:46;7.10;99.90
18888;DHT22;9576;47.792;9.628;2022-09-20T03:16:00;7.10;99.90
18888;DHT22;9576;47.792;9.628;2022-09-20T03:19:14;7.00;99.90
18888;DHT22;9576;47.792;9.628;2022-09-20T03:22:30;7.00;99.90
18888;DHT22;9576;47.792;9.628;2022-09-20T03:25:52;6.90;99.90
18888;DHT22;9576;47.792;9.628;2022-09-20T03:29:02;6.90;99.90
18888;DHT22;9576;47.792;9.628;2022-09-20T03:32:15;6.90;99.90
18888;DHT22;9576;47.792;9.628;2022-09-20T03:35:33;6.90;99.90
18888;DHT22;9576;47.792;9.628;2022-09-20T03:38:50;6.90;99.90
18888;DHT22;9576;47.792;9.628;2022-09-20T03:42:14;6.90;99.90
18888;DHT22;9576;47.792;9.628;2022-09-20T03:45:43;6.80;99.90
18888;DHT22;9576;47.792;9.628;2022-09-20T03:49:03;6.60;99.90
18888;DHT22;9576;47.792;9.628;2022-09-20T03:52:16;6.60;99.90
18888;DHT22;9576;47.792;9.628;2022-09-20T03:56:07;6.60;99.90
18888;DHT22;9576;47.792;9.628;2022-09-20T03:59:27;6.60;99.90
18888;DHT22;9576;47.792;9.628;2022-09-20T04:03:05;6.50;99.90
18888;DHT22;9576;47.792;9.628;2022-09-20T04:06:34;6.50;99.90
18888;DHT22;9576;47.792;9.628;2022-09-20T04:09:56;6.40;99.90
18888;DHT22;9576;47.792;9.628;2022-09-20T04:13:16;6.40;99.90
18888;DHT22;9576;47.792;9.628;2022-09-20T04:16:36;6.40;99.90
18888;DHT22;9576;47.792;9.628;2022-09-20T04:19:46;6.50;99.90
18888;DHT22;9576;47.792;9.628;2022-09-20T04:22:54;6.40;99.90
18888;DHT22;9576;47.792;9.628;2022-09-20T04:26:00;6.40;99.90
18888;DHT22;9576;47.792;9.628;2022-09-20T04:29:21;6.40;99.90
18888;DHT22;9576;47.792;9.628;2022-09-20T04:32:31;6.30;99.90
18888;DHT22;9576;47.792;9.628;2022-09-20T04:35:42;6.30;99.90
18888;DHT22;9576;47.792;9.628;2022-09-20T04:39:15;6.30;99.90
18888;DHT22;9576;47.792;9.628;2022-09-20T04:46:41;6.10;99.90
18888;DHT22;9576;47.792;9.628;2022-09-20T04:53:46;6.20;99.90
18888;DHT22;9576;47.792;9.628;2022-09-20T04:57:03;6.20;99.90
18888;DHT22;9576;47.792;9.628;2022-09-20T05:00:14;6.30;99.90
18888;DHT22;9576;47.792;9.628;2022-09-20T05:03:45;6.20;99.90
18888;DHT22;9576;47.792;9.628;2022-09-20T05:07:24;6.20;99.90
18888;DHT22;9576;47.792;9.628;2022-09-20T05:18:00;6.30;99.90
18888;DHT22;9576;47.792;9.628;2022-09-20T05:21:26;6.40;99.90
18888;DHT22;9576;47.792;9.628;2022-09-20T05:27:58;6.30;99.90
18888;DHT22;9576;47.792;9.628;2022-09-20T05:31:07;6.30;99.90
18888;DHT22;9576;47.792;9.628;2022-09-20T05:34:18;6.40;99.90
18888;DHT22;9576;47.792;9.628;2022-09-20T05:37:29;6.40;99.90
18888;DHT22;9576;47.792;9.628;2022-09-20T05:40:43;6.30;99.90
18888;DHT22;9576;47.792;9.628;2022-09-20T05:43:54;6.20;99.90
18888;DHT22;9576;47.792;9.628;2022-09-20T05:47:04;6.20;99.90
18888;DHT22;9576;47.792;9.628;2022-09-20T05:50:24;6.20;99.90
18888;DHT22;9576;47.792;9.628;2022-09-20T05:53:59;6.30;99.90
18888;DHT22;9576;47.792;9.628;2022-09-20T05:57:16;6.30;99.90
18888;DHT22;9576;47.792;9.628;2022-09-20T06:00:26;6.40;99.90
18888;DHT22;9576;47.792;9.628;2022-09-20T06:03:38;6.40;99.90
18888;DHT22;9576;47.792;9.628;2022-09-20T06:06:48;6.30;99.90
18888;DHT22;9576;47.792;9.628;2022-09-20T06:10:23;6.20;99.90
18888;DHT22;9576;47.792;9.628;2022-09-20T06:17:10;6.20;99.90
18888;DHT22;9576;47.792;9.628;2022-09-20T06:20:23;6.30;99.90
18888;DHT22;9576;47.792;9.628;2022-09-20T06:23:26;6.40;99.90
18888;DHT22;9576;47.792;9.628;2022-09-20T06:26:33;6.50;99.90
18888;DHT22;9576;47.792;9.628;2022-09-20T06:29:40;6.60;99.90
18888;DHT22;9576;47.792;9.628;2022-09-20T06:32:55;6.70;99.90
18888;DHT22;9576;47.792;9.628;2022-09-20T06:36:01;6.80;99.90
18888;DHT22;9576;47.792;9.628;2022-09-20T06:39:27;6.90;99.90
18888;DHT22;9576;47.792;9.628;2022-09-20T06:42:48;7.00;99.90
18888;DHT22;9576;47.792;9.628;2022-09-20T06:45:51;7.10;99.90
18888;DHT22;9576;47.792;9.628;2022-09-20T06:48:53;7.30;99.90
18888;DHT22;9576;47.792;9.628;2022-09-20T06:51:55;7.50;99.90
18888;DHT22;9576;47.792;9.628;2022-09-20T06:54:57;7.70;99.90
18888;DHT22;9576;47.792;9.628;2022-09-20T06:57:59;7.90;99.90
18888;DHT22;9576;47.792;9.628;2022-09-20T07:01:02;8.00;99.90
18888;DHT22;9576;47.792;9.628;2022-09-20T07:04:05;8.20;99.90
18888;DHT22;9576;47.792;9.628;2022-09-20T07:07:07;8.20;99.90
18888;DHT22;9576;47.792;9.628;2022-09-20T07:10:09;8.30;99.90
18888;DHT22;9576;47.792;9.628;2022-09-20T07:13:11;8.40;99.90
18888;DHT22;9576;47.792;9.628;2022-09-20T07:16:15;8.60;99.90
18888;DHT22;9576;47.792;9.628;2022-09-20T07:19:17;8.80;99.90
18888;DHT22;9576;47.792;9.628;2022-09-20T07:22:19;9.10;99.90
18888;DHT22;9576;47.792;9.628;2022-09-20T07:25:21;9.40;99.90
18888;DHT22;9576;47.792;9.628;2022-09-20T07:28:23;9.80;99.90
18888;DHT22;9576;47.792;9.628;2022-09-20T07:31:28;10.10;99.90
18888;DHT22;9576;47.792;9.628;2022-09-20T07:34:30;10.30;99.90
18888;DHT22;9576;47.792;9.628;2022-09-20T07:37:32;10.40;99.90
18888;DHT22;9576;47.792;9.628;2022-09-20T07:40:34;10.50;99.90
18888;DHT22;9576;47.792;9.628;2022-09-20T07:43:36;10.70;99.90
18888;DHT22;9576;47.792;9.628;2022-09-20T07:46:39;10.80;99.90
18888;DHT22;9576;47.792;9.628;2022-09-20T07:49:41;10.90;99.90
18888;DHT22;9576;47.792;9.628;2022-09-20T07:52:43;11.00;99.90
18888;DHT22;9576;47.792;9.628;2022-09-20T07:55:55;11.10;99.90
18888;DHT22;9576;47.792;9.628;2022-09-20T07:58:57;11.10;99.90
18888;DHT22;9576;47.792;9.628;2022-09-20T08:02:01;11.20;99.90
18888;DHT22;9576;47.792;9.628;2022-09-20T08:05:03;11.10;99.90
18888;DHT22;9576;47.792;9.628;2022-09-20T08:08:06;11.10;99.90
18888;DHT22;9576;47.792;9.628;2022-09-20T08:11:10;11.00;99.90
18888;DHT22;9576;47.792;9.628;2022-09-20T08:14:13;10.90;99.90
18888;DHT22;9576;47.792;9.628;2022-09-20T08:17:17;10.90;99.90
18888;DHT22;9576;47.792;9.628;2022-09-20T08:20:19;11.00;99.90
18888;DHT22;9576;47.792;9.628;2022-09-20T08:23:21;11.00;99.90
18888;DHT22;9576;47.792;9.628;2022-09-20T08:26:24;11.10;99.90
18888;DHT22;9576;47.792;9.628;2022-09-20T08:29:26;11.20;99.90
18888;DHT22;9576;47.792;9.628;2022-09-20T08:32:29;11.30;99.90
18888;DHT22;9576;47.792;9.628;2022-09-20T08:35:34;11.40;99.90
18888;DHT22;9576;47.792;9.628;2022-09-20T08:38:36;11.60;99.90
18888;DHT22;9576;47.792;9.628;2022-09-20T08:41:41;11.70;99.90
18888;DHT22;9576;47.792;9.628;2022-09-20T08:44:48;11.90;99.90
18888;DHT22;9576;47.792;9.628;2022-09-20T08:47:56;12.00;99.90
18888;DHT22;9576;47.792;9.628;2022-09-20T08:51:02;12.00;99.90
18888;DHT22;9576;47.792;9.628;2022-09-20T08:54:06;12.10;99.90
18888;DHT22;9576;47.792;9.628;2022-09-20T08:57:13;12.30;99.90
18888;DHT22;9576;47.792;9.628;2022-09-20T09:00:18;12.30;99.90
18888;DHT22;9576;47.792;9.628;2022-09-20T09:03:22;12.60;99.90
18888;DHT22;9576;47.792;9.628;2022-09-20T09:06:24;12.50;99.90
18888;DHT22;9576;47.792;9.628;2022-09-20T09:09:27;12.50;99.90
18888;DHT22;9576;47.792;9.628;2022-09-20T09:12:33;12.50;99.90
18888;DHT22;9576;47.792;9.628;2022-09-20T09:15:37;12.60;99.90
18888;DHT22;9576;47.792;9.628;2022-09-20T09:18:43;12.50;99.90
18888;DHT22;9576;47.792;9.628;2022-09-20T09:21:46;12.70;99.90
18888;DHT22;9576;47.792;9.628;2022-09-20T09:25:15;12.80;99.90
18888;DHT22;9576;47.792;9.628;2022-09-20T09:28:23;13.10;99.90
18888;DHT22;9576;47.792;9.628;2022-09-20T09:31:25;13.20;99.90
18888;DHT22;9576;47.792;9.628;2022-09-20T09:34:30;13.40;99.90
18888;DHT22;9576;47.792;9.628;2022-09-20T09:37:32;13.60;99.90
18888;DHT22;9576;47.792;9.628;2022-09-20T09:40:34;13.80;99.90
18888;DHT22;9576;47.792;9.628;2022-09-20T09:43:37;13.90;99.90
18888;DHT22;9576;47.792;9.628;2022-09-20T09:46:40;13.70;99.90
18888;DHT22;9576;47.792;9.628;2022-09-20T09:49:55;13.50;99.90
18888;DHT22;9576;47.792;9.628;2022-09-20T09:53:04;13.60;99.90
18888;DHT22;9576;47.792;9.628;2022-09-20T09:56:25;13.60;99.90
18888;DHT22;9576;47.792;9.628;2022-09-20T09:59:44;13.70;99.90
18888;DHT22;9576;47.792;9.628;2022-09-20T10:06:27;14.00;99.90
18888;DHT22;9576;47.792;9.628;2022-09-20T10:09:50;14.20;99.90
18888;DHT22;9576;47.792;9.628;2022-09-20T10:13:05;14.20;99.90
18888;DHT22;9576;47.792;9.628;2022-09-20T10:16:19;14.20;99.90
18888;DHT22;9576;47.792;9.628;2022-09-20T10:19:34;14.30;99.90
18888;DHT22;9576;47.792;9.628;2022-09-20T10:22:50;14.40;99.90
18888;DHT22;9576;47.792;9.628;2022-09-20T10:25:57;14.40;99.90
18888;DHT22;9576;47.792;9.628;2022-09-20T10:29:06;14.50;99.90
18888;DHT22;9576;47.792;9.628;2022-09-20T10:32:25;14.60;99.90
18888;DHT22;9576;47.792;9.628;2022-09-20T10:35:33;14.70;99.90
18888;DHT22;9576;47.792;9.628;2022-09-20T10:38:43;14.80;99.90
18888;DHT22;9576;47.792;9.628;2022-09-20T10:41:53;14.70;99.90
18888;DHT22;9576;47.792;9.628;2022-09-20T10:45:18;14.60;99.90
18888;DHT22;9576;47.792;9.628;2022-09-20T10:48:25;14.60;99.90
18888;DHT22;9576;47.792;9.628;2022-09-20T10:51:36;14.50;99.90
18888;DHT22;9576;47.792;9.628;2022-09-20T10:54:55;14.50;99.90
18888;DHT22;9576;47.792;9.628;2022-09-20T10:58:31;14.60;99.90
18888;DHT22;9576;47.792;9.628;2022-09-20T11:01:41;14.70;99.90
18888;DHT22;9576;47.792;9.628;2022-09-20T11:05:17;14.90;99.90
18888;DHT22;9576;47.792;9.628;2022-09-20T11:08:23;14.70;99.90
18888;DHT22;9576;47.792;9.628;2022-09-20T11:11:32;14.70;99.90
18888;DHT22;9576;47.792;9.628;2022-09-20T11:14:39;14.70;99.90
18888;DHT22;9576;47.792;9.628;2022-09-20T11:17:46;14.90;99.90
18888;DHT22;9576;47.792;9.628;2022-09-20T11:20:55;14.90;99.90
18888;DHT22;9576;47.792;9.628;2022-09-20T11:24:02;14.80;99.90
18888;DHT22;9576;47.792;9.628;2022-09-20T11:27:13;14.80;99.90
18888;DHT22;9576;47.792;9.628;2022-09-20T11:30:19;14.90;99.90
18888;DHT22;9576;47.792;9.628;2022-09-20T11:33:25;14.90;99.90
18888;DHT22;9576;47.792;9.628;2022-09-20T11:36:33;15.30;99.90
18888;DHT22;9576;47.792;9.628;2022-09-20T11:39:41;15.80;99.90
18888;DHT22;9576;47.792;9.628;2022-09-20T11:42:48;16.00;99.90
18888;DHT22;9576;47.792;9.628;2022-09-20T11:45:51;15.80;99.90
18888;DHT22;9576;47.792;9.628;2022-09-20T11:48:58;15.80;99.90
18888;DHT22;9576;47.792;9.628;2022-09-20T11:52:26;15.80;99.90
18888;DHT22;9576;47.792;9.628;2022-09-20T11:55:40;16.00;99.90
18888;DHT22;9576;47.792;9.628;2022-09-20T11:58:46;16.20;99.90
18888;DHT22;9576;47.792;9.628;2022-09-20T12:01:53;16.30;99.90
18888;DHT22;9576;47.792;9.628;2022-09-20T12:04:56;16.10;99.90
18888;DHT22;9576;47.792;9.628;2022-09-20T12:08:00;16.00;99.90
18888;DHT22;9576;47.792;9.628;2022-09-20T12:11:05;16.00;99.90
18888;DHT22;9576;47.792;9.628;2022-09-20T12:14:18;15.70;99.90
18888;DHT22;9576;47.792;9.628;2022-09-20T12:18:03;15.60;99.90
18888;DHT22;9576;47.792;9.628;2022-09-20T12:21:09;15.40;99.90
18888;DHT22;9576;47.792;9.628;2022-09-20T12:24:29;15.30;99.90
18888;DHT22;9576;47.792;9.628;2022-09-20T12:27:56;15.30;99.90
18888;DHT22;9576;47.792;9.628;2022-09-20T12:34:35;15.60;99.90
18888;DHT22;9576;47.792;9.628;2022-09-20T12:37:38;15.70;99.90
18888;DHT22;9576;47.792;9.628;2022-09-20T12:41:03;15.90;99.90
18888;DHT22;9576;47.792;9.628;2022-09-20T12:44:23;16.00;99.90
18888;DHT22;9576;47.792;9.628;2022-09-20T12:47:28;16.00;99.90
18888;DHT22;9576;47.792;9.628;2022-09-20T12:50:32;16.10;99.90
18888;DHT22;9576;47.792;9.628;2022-09-20T12:54:00;16.50;99.90
18888;DHT22;9576;47.792;9.628;2022-09-20T12:57:16;16.60;99.90
18888;DHT22;9576;47.792;9.628;2022-09-20T13:00:30;16.90;99.90
18888;DHT22;9576;47.792;9.628;2022-09-20T13:03:38;17.00;99.90
18888;DHT22;9576;47.792;9.628;2022-09-20T13:06:42;16.70;99.90
18888;DHT22;9576;47.792;9.628;2022-09-20T13:09:46;16.60;99.90
18888;DHT22;9576;47.792;9.628;2022-09-20T13:12:52;16.70;99.90
18888;DHT22;9576;47.792;9.628;2022-09-20T13:15:55;16.60;99.90
18888;DHT22;9576;47.792;9.628;2022-09-20T13:19:01;16.60;99.90
18888;DHT22;9576;47.792;9.628;2022-09-20T13:22:10;16.60;99.90
18888;DHT22;9576;47.792;9.628;2022-09-20T13:25:14;16.60;99.90
18888;DHT22;9576;47.792;9.628;2022-09-20T13:28:28;16.60;99.90
18888;DHT22;9576;47.792;9.628;2022-09-20T13:31:33;16.70;99.90
18888;DHT22;9576;47.792;9.628;2022-09-20T13:34:35;16.60;99.90
18888;DHT22;9576;47.792;9.628;2022-09-20T13:37:39;16.50;99.90
18888;DHT22;9576;47.792;9.628;2022-09-20T13:40:47;16.40;99.90
18888;DHT22;9576;47.792;9.628;2022-09-20T13:43:50;16.20;99.90
18888;DHT22;9576;47.792;9.628;2022-09-20T13:46:52;16.00;99.90
18888;DHT22;9576;47.792;9.628;2022-09-20T13:49:59;15.90;99.90
18888;DHT22;9576;47.792;9.628;2022-09-20T13:53:13;15.80;99.90
18888;DHT22;9576;47.792;9.628;2022-09-20T13:56:18;16.00;99.90
18888;DHT22;9576;47.792;9.628;2022-09-20T13:59:22;16.10;99.90
18888;DHT22;9576;47.792;9.628;2022-09-20T14:02:28;16.50;99.90
18888;DHT22;9576;47.792;9.628;2022-09-20T14:05:30;16.80;99.90
18888;DHT22;9576;47.792;9.628;2022-09-20T14:08:39;16.60;99.90
18888;DHT22;9576;47.792;9.628;2022-09-20T14:11:42;16.70;99.90
18888;DHT22;9576;47.792;9.628;2022-09-20T14:14:45;16.50;99.90
18888;DHT22;9576;47.792;9.628;2022-09-20T14:17:47;17.50;99.90
18888;DHT22;9576;47.792;9.628;2022-09-20T14:20:51;19.00;99.90
18888;DHT22;9576;47.792;9.628;2022-09-20T14:23:57;19.60;99.90
18888;DHT22;9576;47.792;9.628;2022-09-20T14:27:11;19.20;99.90
18888;DHT22;9576;47.792;9.628;2022-09-20T14:30:29;19.00;99.90
18888;DHT22;9576;47.792;9.628;2022-09-20T14:33:32;18.50;99.90
18888;DHT22;9576;47.792;9.628;2022-09-20T14:36:34;17.80;99.90
18888;DHT22;9576;47.792;9.628;2022-09-20T14:39:46;17.40;99.90
18888;DHT22;9576;47.792;9.628;2022-09-20T14:42:52;17.00;99.90
18888;DHT22;9576;47.792;9.628;2022-09-20T14:45:56;16.50;99.90
18888;DHT22;9576;47.792;9.628;2022-09-20T14:49:30;16.30;99.90
18888;DHT22;9576;47.792;9.628;2022-09-20T14:52:38;16.00;99.90
18888;DHT22;9576;47.792;9.628;2022-09-20T14:55:59;16.00;99.90
18888;DHT22;9576;47.792;9.628;2022-09-20T14:59:22;16.30;99.90
18888;DHT22;9576;47.792;9.628;2022-09-20T15:02:24;16.40;99.90
18888;DHT22;9576;47.792;9.628;2022-09-20T15:05:27;16.10;99.90
18888;DHT22;9576;47.792;9.628;2022-09-20T15:08:29;15.80;99.90
18888;DHT22;9576;47.792;9.628;2022-09-20T15:11:33;15.60;99.90
18888;DHT22;9576;47.792;9.628;2022-09-20T15:14:34;15.40;99.90
18888;DHT22;9576;47.792;9.628;2022-09-20T15:17:36;15.30;99.90
18888;DHT22;9576;47.792;9.628;2022-09-20T15:20:38;15.40;99.90
18888;DHT22;9576;47.792;9.628;2022-09-20T15:23:40;15.40;99.90
18888;DHT22;9576;47.792;9.628;2022-09-20T15:26:43;15.40;99.90
18888;DHT22;9576;47.792;9.628;2022-09-20T15:29:45;15.60;99.90
18888;DHT22;9576;47.792;9.628;2022-09-20T15:32:48;17.00;99.90
18888;DHT22;9576;47.792;9.628;2022-09-20T15:35:56;18.20;99.90
18888;DHT22;9576;47.792;9.628;2022-09-20T15:38:58;18.90;99.90
18888;DHT22;9576;47.792;9.628;2022-09-20T15:42:02;19.20;99.90
18888;DHT22;9576;47.792;9.628;2022-09-20T15:45:06;19.10;99.90
18888;DHT22;9576;47.792;9.628;2022-09-20T15:48:09;18.80;99.90
18888;DHT22;9576;47.792;9.628;2022-09-20T15:51:12;19.10;99.90
18888;DHT22;9576;47.792;9.628;2022-09-20T15:54:14;19.80;99.90
18888;DHT22;9576;47.792;9.628;2022-09-20T15:57:18;20.40;99.90
18888;DHT22;9576;47.792;9.628;2022-09-20T16:00:21;20.20;99.90
18888;DHT22;9576;47.792;9.628;2022-09-20T16:03:27;19.90;99.90
18888;DHT22;9576;47.792;9.628;2022-09-20T16:06:31;18.60;99.90
18888;DHT22;9576;47.792;9.628;2022-09-20T16:09:32;17.60;99.90
18888;DHT22;9576;47.792;9.628;2022-09-20T16:12:36;17.20;99.90
18888;DHT22;9576;47.792;9.628;2022-09-20T16:15:40;16.70;99.90
18888;DHT22;9576;47.792;9.628;2022-09-20T16:18:44;16.40;99.90
18888;DHT22;9576;47.792;9.628;2022-09-20T16:22:03;16.30;99.90
18888;DHT22;9576;47.792;9.628;2022-09-20T16:25:07;16.30;99.90
18888;DHT22;9576;47.792;9.628;2022-09-20T16:28:11;16.10;99.90
18888;DHT22;9576;47.792;9.628;2022-09-20T16:31:30;15.90;99.90
18888;DHT22;9576;47.792;9.628;2022-09-20T16:34:34;15.60;99.90
18888;DHT22;9576;47.792;9.628;2022-09-20T16:37:36;15.40;99.90
18888;DHT22;9576;47.792;9.628;2022-09-20T16:40:38;15.40;99.90
18888;DHT22;9576;47.792;9.628;2022-09-20T16:43:42;15.50;99.90
18888;DHT22;9576;47.792;9.628;2022-09-20T16:46:44;15.60;99.90
18888;DHT22;9576;47.792;9.628;2022-09-20T16:49:47;15.50;99.90
18888;DHT22;9576;47.792;9.628;2022-09-20T16:52:49;15.30;99.90
18888;DHT22;9576;47.792;9.628;2022-09-20T16:55:52;15.10;99.90
18888;DHT22;9576;47.792;9.628;2022-09-20T16:58:56;14.60;99.90
18888;DHT22;9576;47.792;9.628;2022-09-20T17:01:59;14.30;99.90
18888;DHT22;9576;47.792;9.628;2022-09-20T17:05:00;14.00;99.90
18888;DHT22;9576;47.792;9.628;2022-09-20T17:08:03;13.70;99.90
18888;DHT22;9576;47.792;9.628;2022-09-20T17:11:06;13.40;99.90
18888;DHT22;9576;47.792;9.628;2022-09-20T17:14:11;13.10;99.90
18888;DHT22;9576;47.792;9.628;2022-09-20T17:17:13;12.90;99.90
18888;DHT22;9576;47.792;9.628;2022-09-20T17:20:15;12.60;99.90
18888;DHT22;9576;47.792;9.628;2022-09-20T17:23:17;12.40;99.90
18888;DHT22;9576;47.792;9.628;2022-09-20T17:26:20;12.20;99.90
18888;DHT22;9576;47.792;9.628;2022-09-20T17:29:24;11.90;99.90
18888;DHT22;9576;47.792;9.628;2022-09-20T17:32:27;11.80;99.90
18888;DHT22;9576;47.792;9.628;2022-09-20T17:35:29;11.60;99.90
18888;DHT22;9576;47.792;9.628;2022-09-20T17:38:32;11.50;99.90
18888;DHT22;9576;47.792;9.628;2022-09-20T17:41:35;11.40;99.90
18888;DHT22;9576;47.792;9.628;2022-09-20T17:44:39;11.40;99.90
18888;DHT22;9576;47.792;9.628;2022-09-20T17:47:41;11.30;99.90
18888;DHT22;9576;47.792;9.628;2022-09-20T17:50:53;11.20;99.90
18888;DHT22;9576;47.792;9.628;2022-09-20T17:56:58;11.10;99.90
18888;DHT22;9576;47.792;9.628;2022-09-20T18:00:02;11.00;99.90
18888;DHT22;9576;47.792;9.628;2022-09-20T18:03:04;11.00;99.90
18888;DHT22;9576;47.792;9.628;2022-09-20T18:06:10;10.90;99.90
18888;DHT22;9576;47.792;9.628;2022-09-20T18:09:13;10.90;99.90
18888;DHT22;9576;47.792;9.628;2022-09-20T18:12:16;10.90;99.90
18888;DHT22;9576;47.792;9.628;2022-09-20T18:15:19;10.90;99.90
18888;DHT22;9576;47.792;9.628;2022-09-20T18:18:21;10.80;99.90
18888;DHT22;9576;47.792;9.628;2022-09-20T18:21:25;10.70;99.90
18888;DHT22;9576;47.792;9.628;2022-09-20T18:24:27;10.70;99.90
18888;DHT22;9576;47.792;9.628;2022-09-20T18:27:29;10.70;99.90
18888;DHT22;9576;47.792;9.628;2022-09-20T18:30:34;10.60;99.90
18888;DHT22;9576;47.792;9.628;2022-09-20T18:33:36;10.50;99.90
18888;DHT22;9576;47.792;9.628;2022-09-20T18:36:39;10.40;99.90
18888;DHT22;9576;47.792;9.628;2022-09-20T18:39:41;10.30;99.90
18888;DHT22;9576;47.792;9.628;2022-09-20T18:42:45;10.20;99.90
18888;DHT22;9576;47.792;9.628;2022-09-20T18:45:51;10.20;99.90
18888;DHT22;9576;47.792;9.628;2022-09-20T18:48:55;10.10;99.90
18888;DHT22;9576;47.792;9.628;2022-09-20T18:51:57;10.20;99.90
18888;DHT22;9576;47.792;9.628;2022-09-20T18:54:59;10.20;99.90
18888;DHT22;9576;47.792;9.628;2022-09-20T18:58:07;10.10;99.90
18888;DHT22;9576;47.792;9.628;2022-09-20T19:01:22;10.10;99.90
18888;DHT22;9576;47.792;9.628;2022-09-20T19:04:46;10.10;99.90
18888;DHT22;9576;47.792;9.628;2022-09-20T19:08:04;10.10;99.90
18888;DHT22;9576;47.792;9.628;2022-09-20T19:11:24;10.00;99.90
18888;DHT22;9576;47.792;9.628;2022-09-20T19:14:31;10.00;99.90
18888;DHT22;9576;47.792;9.628;2022-09-20T19:17:56;10.00;99.90
18888;DHT22;9576;47.792;9.628;2022-09-20T19:21:14;10.00;99.90
18888;DHT22;9576;47.792;9.628;2022-09-20T19:24:30;10.00;99.90
18888;DHT22;9576;47.792;9.628;2022-09-20T19:27:35;9.90;99.90
18888;DHT22;9576;47.792;9.628;2022-09-20T19:30:37;9.90;99.90
18888;DHT22;9576;47.792;9.628;2022-09-20T19:33:42;9.90;99.90
18888;DHT22;9576;47.792;9.628;2022-09-20T19:37:06;9.90;99.90
18888;DHT22;9576;47.792;9.628;2022-09-20T19:40:20;9.90;99.90
18888;DHT22;9576;47.792;9.628;2022-09-20T19:43:40;10.00;99.90
18888;DHT22;9576;47.792;9.628;2022-09-20T19:46:51;10.00;99.90
18888;DHT22;9576;47.792;9.628;2022-09-20T19:50:03;10.00;99.90
18888;DHT22;9576;47.792;9.628;2022-09-20T19:53:09;10.00;99.90
18888;DHT22;9576;47.792;9.628;2022-09-20T19:56:21;10.00;99.90
18888;DHT22;9576;47.792;9.628;2022-09-20T19:59:25;10.00;99.90
18888;DHT22;9576;47.792;9.628;2022-09-20T20:02:28;10.00;99.90
18888;DHT22;9576;47.792;9.628;2022-09-20T20:05:32;10.10;99.90
18888;DHT22;9576;47.792;9.628;2022-09-20T20:08:38;10.10;99.90
18888;DHT22;9576;47.792;9.628;2022-09-20T20:11:48;10.10;99.90
18888;DHT22;9576;47.792;9.628;2022-09-20T20:14:56;10.10;99.90
18888;DHT22;9576;47.792;9.628;2022-09-20T20:18:05;10.10;99.90
18888;DHT22;9576;47.792;9.628;2022-09-20T20:21:15;10.20;99.90
18888;DHT22;9576;47.792;9.628;2022-09-20T20:24:25;10.20;99.90
18888;DHT22;9576;47.792;9.628;2022-09-20T20:27:31;10.20;99.90
18888;DHT22;9576;47.792;9.628;2022-09-20T20:30:33;10.20;99.90
18888;DHT22;9576;47.792;9.628;2022-09-20T20:33:34;10.20;99.90
18888;DHT22;9576;47.792;9.628;2022-09-20T20:36:38;10.20;99.90
18888;DHT22;9576;47.792;9.628;2022-09-20T20:39:40;10.30;99.90
18888;DHT22;9576;47.792;9.628;2022-09-20T20:42:42;10.30;99.90
18888;DHT22;9576;47.792;9.628;2022-09-20T20:45:48;10.30;99.90
18888;DHT22;9576;47.792;9.628;2022-09-20T20:48:50;10.30;99.90
18888;DHT22;9576;47.792;9.628;2022-09-20T20:51:53;10.30;99.90
18888;DHT22;9576;47.792;9.628;2022-09-20T20:54:58;10.30;99.90
18888;DHT22;9576;47.792;9.628;2022-09-20T20:57:59;10.20;99.90
18888;DHT22;9576;47.792;9.628;2022-09-20T21:01:06;10.20;99.90